aviador You're here:

KSBA Decoded Metar

SANTA BARBARA in CA, USA
Report Time2018-01-18 10:53:00
UTC Time2018-01-18 11:43:44
Flight Rules vfr VFR
Wind050° at 03 kt
W.Decomp.*RWY 07: 2.5 kt HW 1.7 kt LCW
RWY 33: 1.2 kt HW 2.7 kt RCW
W.Rank050° ranks 19
Current wind is below 050° avg. (4.4)
Visibility9999 m
Phenomena:N/A
Clouds:N/A
Expected CloudBase > 800 ft AGL from Temp-Dew spread
CeilingNone
Temp09°C (ISA -6)
Dew Point07°C (87% RH)
AAT7.2°C
QNH1019 hPa
Density Alt-774 ft
Elevation10 ft
Report Wrong Elevation
Raw Report
METAR KSBA 181053Z AUTO 05003KT 10SM CLR 09/07 A3008 RMK AO2 SLP186
T00940072=

Extra information for KSBA:More info

Metar Taf Metar & Taf Last 4 Metars F.Rules Stats Wind Profile Meteogram Temp Stats Airport Information Weather charts Add Link Nearby VenuesMetar ALERT Operation Metar Decoded Social comments

AIRNAV info for KSBA